createdAt,value
2022-10-02T00:03:16.369Z,93621.27
2022-10-02T00:08:36.968Z,93633.98
2022-10-02T00:13:48.885Z,93648.28
2022-10-02T00:18:58.475Z,93654.91
2022-10-02T00:24:09.802Z,93656.76
2022-10-02T00:29:36.497Z,93658.61
2022-10-02T00:34:59.910Z,93662.05
2022-10-02T00:40:29.218Z,93659.67
2022-10-02T00:46:07.594Z,93668.97
2022-10-02T00:51:35.696Z,93671.33
2022-10-02T00:56:56.681Z,93677.45
2022-10-02T01:02:30.186Z,93688.06
2022-10-02T01:07:41.079Z,93669.22
2022-10-02T01:12:48.985Z,93655.98
2022-10-02T01:17:58.335Z,93652.80
2022-10-02T01:23:12.784Z,93652.76
2022-10-02T01:28:22.955Z,93644.58
2022-10-02T01:33:29.611Z,93658.77
2022-10-02T01:38:36.818Z,93648.70
2022-10-02T01:43:52.362Z,93641.94
2022-10-02T01:49:39.184Z,93631.55
2022-10-02T01:55:24.843Z,93642.05
2022-10-02T02:00:42.427Z,93643.24
2022-10-02T02:05:53.687Z,93640.19
2022-10-02T02:11:13.538Z,93655.85
2022-10-02T02:16:33.729Z,93639.83
2022-10-02T02:22:08.138Z,93637.19
2022-10-02T02:27:19.292Z,93651.98
2022-10-02T02:32:31.247Z,93665.55
2022-10-02T02:37:41.782Z,93653.36
2022-10-02T02:43:07.645Z,93668.19
2022-10-02T02:48:18.810Z,93677.72
2022-10-02T02:53:32.517Z,93648.03
2022-10-02T02:58:58.487Z,93653.34
2022-10-02T03:04:05.233Z,93659.98
2022-10-02T03:09:22.952Z,93675.87
2022-10-02T03:15:03.513Z,93683.58
2022-10-02T03:20:26.765Z,93691.50
2022-10-02T03:25:43.527Z,93694.69
2022-10-02T03:30:53.352Z,93688.33
2022-10-02T03:36:01.757Z,93687.03
2022-10-02T03:41:08.658Z,93701.33
2022-10-02T03:46:15.384Z,93733.13
2022-10-02T03:51:21.956Z,93728.60
2022-10-02T03:56:42.397Z,93740.53
2022-10-02T04:01:52.211Z,93758.74
2022-10-02T04:07:08.955Z,93735.99
2022-10-02T04:12:29.156Z,93705.31
2022-10-02T04:17:46.122Z,93732.55
2022-10-02T04:22:56.549Z,93756.88
2022-10-02T04:28:10.798Z,93752.38
2022-10-02T04:33:23.956Z,93736.22
2022-10-02T04:39:06.841Z,93767.48
2022-10-02T04:44:36.017Z,93786.81
2022-10-02T04:50:12.373Z,93793.44
2022-10-02T04:55:41.492Z,93796.56
2022-10-02T05:01:21.196Z,93797.77
2022-10-02T05:06:44.150Z,93782.84
2022-10-02T05:12:14.326Z,93799.57
2022-10-02T05:17:48.141Z,93804.09
2022-10-02T05:23:17.385Z,93804.03
2022-10-02T05:29:03.037Z,93810.17
2022-10-02T05:34:35.643Z,93823.73
2022-10-02T05:40:24.779Z,93822.46
2022-10-02T05:46:01.292Z,93824.84
2022-10-02T05:51:53.877Z,93840.22
2022-10-02T05:57:32.782Z,93828.78
2022-10-02T06:02:57.014Z,93830.85
2022-10-02T06:08:06.957Z,93840.71
2022-10-02T06:13:24.453Z,93841.28
2022-10-02T06:18:34.814Z,93850.95
2022-10-02T06:23:46.027Z,93849.86
2022-10-02T06:29:02.882Z,93869.53
2022-10-02T06:34:13.515Z,93855.47
2022-10-02T06:39:33.577Z,93861.58
2022-10-02T06:44:57.469Z,93863.70
2022-10-02T06:50:23.623Z,93854.94
2022-10-02T06:56:12.467Z,93862.88
2022-10-02T07:01:33.605Z,93868.92
2022-10-02T07:07:05.639Z,93864.38
2022-10-02T07:12:50.070Z,93874.98
2022-10-02T07:18:10.159Z,93891.42
2022-10-02T07:23:43.704Z,93895.89
2022-10-02T07:29:19.906Z,93889.97
2022-10-02T07:35:01.281Z,93905.86
2022-10-02T07:40:15.671Z,93893.52
2022-10-02T07:45:29.279Z,93888.05
2022-10-02T07:50:58.261Z,93898.74
2022-10-02T07:56:06.501Z,93896.50
2022-10-02T08:01:26.631Z,93892.12
2022-10-02T08:06:37.837Z,93882.70
2022-10-02T08:11:58.354Z,93877.76
2022-10-02T08:17:29.548Z,93878.84
2022-10-02T08:22:46.753Z,93874.57
2022-10-02T08:28:06.237Z,93886.98
2022-10-02T08:33:37.503Z,93883.55
2022-10-02T08:39:03.381Z,93881.00
2022-10-02T08:44:47.371Z,93871.94
2022-10-02T08:50:48.878Z,93860.64
2022-10-02T08:56:46.513Z,93869.45
2022-10-02T09:02:43.023Z,93866.72
2022-10-02T09:08:13.134Z,93861.27
2022-10-02T09:14:00.683Z,93874.31
2022-10-02T09:19:43.995Z,93863.54
2022-10-02T09:25:18.044Z,93864.87
2022-10-02T09:30:40.775Z,93861.95
2022-10-02T09:36:26.866Z,93867.14
2022-10-02T09:42:21.816Z,93863.59
2022-10-02T09:47:44.743Z,93851.52
2022-10-02T09:53:30.802Z,93863.38
2022-10-02T09:59:21.285Z,93868.41
2022-10-02T10:05:05.490Z,93862.86
2022-10-02T10:10:22.797Z,93861.53
2022-10-02T10:16:06.562Z,93846.00
2022-10-02T10:21:52.576Z,93844.01
2022-10-02T10:27:38.887Z,93844.72
2022-10-02T10:33:00.808Z,93835.09
2022-10-02T10:38:35.284Z,93837.81
2022-10-02T10:44:19.739Z,93829.70
2022-10-02T10:49:53.637Z,93831.61
2022-10-02T10:55:39.641Z,93832.98
2022-10-02T11:01:17.901Z,93825.09
2022-10-02T11:06:57.909Z,93808.95
2022-10-02T11:12:37.513Z,93814.20
2022-10-02T11:18:07.241Z,93801.70
2022-10-02T11:23:40.575Z,93809.06
2022-10-02T11:29:13.186Z,93827.87
2022-10-02T11:34:47.367Z,93822.20
2022-10-02T11:40:35.552Z,93825.70
2022-10-02T11:46:04.676Z,93806.81
2022-10-02T11:51:41.670Z,93803.07
2022-10-02T11:57:18.456Z,93788.94
2022-10-02T12:02:39.353Z,93756.96
2022-10-02T12:08:18.002Z,93754.05
2022-10-02T12:13:45.900Z,93753.51
2022-10-02T12:19:09.008Z,93760.64
2022-10-02T12:24:37.782Z,93760.43
2022-10-02T12:30:10.459Z,93741.86
2022-10-02T12:35:38.629Z,93727.22
2022-10-02T12:41:18.484Z,93718.13
2022-10-02T12:47:01.227Z,93713.53
2022-10-02T12:52:48.387Z,93716.14
2022-10-02T12:58:21.087Z,93737.99
2022-10-02T13:04:03.226Z,93709.38
2022-10-02T13:09:37.730Z,93729.14
2022-10-02T13:15:21.160Z,93748.27
2022-10-02T13:21:03.889Z,93718.55
2022-10-02T13:26:33.362Z,93725.83
2022-10-02T13:32:01.245Z,93739.08
2022-10-02T13:37:38.441Z,93730.80
2022-10-02T13:43:21.270Z,93706.77
2022-10-02T13:49:15.616Z,93695.28
2022-10-02T13:54:53.046Z,93694.05
2022-10-02T14:00:44.156Z,93677.22
2022-10-02T14:06:04.050Z,93660.95
2022-10-02T14:11:29.231Z,93643.60
2022-10-02T14:17:13.640Z,93643.27
2022-10-02T14:22:50.098Z,93621.22
2022-10-02T14:28:25.685Z,93600.99
2022-10-02T14:34:11.604Z,93580.55
2022-10-02T14:39:29.610Z,93594.50
2022-10-02T14:45:05.244Z,93568.94
2022-10-02T14:50:38.950Z,93567.25
2022-10-02T14:56:09.554Z,93556.61
2022-10-02T15:01:27.766Z,93542.45
2022-10-02T15:07:02.918Z,93563.65
2022-10-02T15:12:10.928Z,93557.05
2022-10-02T15:18:00.474Z,93555.23
2022-10-02T15:23:15.757Z,93543.32
2022-10-02T15:29:06.199Z,93541.33
2022-10-02T15:34:59.536Z,93553.20
2022-10-02T15:40:30.831Z,93549.91
2022-10-02T15:46:04.023Z,93563.02
2022-10-02T15:51:42.985Z,93580.51
2022-10-02T15:57:22.055Z,93585.06
2022-10-02T16:02:54.006Z,93588.88
2022-10-02T16:08:23.340Z,93591.69
2022-10-02T16:14:04.439Z,93604.47
2022-10-02T16:19:40.639Z,93608.91
2022-10-02T16:25:26.375Z,93627.41
2022-10-02T16:30:55.073Z,93635.51
2022-10-02T16:36:43.660Z,93633.14
2022-10-02T16:42:21.724Z,93634.51
2022-10-02T16:47:48.248Z,93642.89
2022-10-02T16:53:29.902Z,93644.19
2022-10-02T16:59:01.404Z,93633.12
2022-10-02T17:04:48.140Z,93639.91
2022-10-02T17:10:08.143Z,93633.65
2022-10-02T17:15:56.163Z,93626.36
2022-10-02T17:21:13.487Z,93638.53
2022-10-02T17:26:35.753Z,93642.94
2022-10-02T17:31:56.951Z,93647.72
2022-10-02T17:37:15.454Z,93650.17
2022-10-02T17:42:55.054Z,93645.77
2022-10-02T17:48:40.268Z,93663.17
2022-10-02T17:54:25.891Z,93673.05
2022-10-02T18:00:00.191Z,93680.16
2022-10-02T18:05:38.255Z,93692.05
2022-10-02T18:10:58.605Z,93681.83
2022-10-02T18:16:17.483Z,93676.73
2022-10-02T18:22:03.882Z,93678.95
2022-10-02T18:28:02.994Z,93674.41
2022-10-02T18:33:48.180Z,93673.53
2022-10-02T18:39:15.715Z,93664.56
2022-10-02T18:44:30.365Z,93655.41
2022-10-02T18:50:14.756Z,93644.82
2022-10-02T18:55:51.924Z,93656.06
2022-10-02T19:01:21.515Z,93656.36
2022-10-02T19:07:04.909Z,93652.63
2022-10-02T19:12:25.391Z,93652.92
2022-10-02T19:17:33.764Z,93649.70
2022-10-02T19:22:47.391Z,93646.19
2022-10-02T19:27:58.495Z,93642.22
2022-10-02T19:33:10.241Z,93649.25
2022-10-02T19:38:34.038Z,93656.07
2022-10-02T19:43:59.321Z,93654.13
2022-10-02T19:49:09.129Z,93635.36
2022-10-02T19:54:39.829Z,93632.04
2022-10-02T19:59:53.619Z,93631.32
2022-10-02T20:05:05.307Z,93647.23
2022-10-02T20:10:24.556Z,93649.14
2022-10-02T20:15:56.252Z,93655.56
2022-10-02T20:21:24.114Z,93657.60
2022-10-02T20:26:36.406Z,93664.59
2022-10-02T20:32:00.662Z,93680.23
2022-10-02T20:37:19.646Z,93679.41
2022-10-02T20:42:40.941Z,93692.02
2022-10-02T20:48:39.562Z,93705.69
2022-10-02T20:54:15.483Z,93697.05
2022-10-02T20:59:43.117Z,93698.48
2022-10-02T21:05:04.383Z,93706.23
2022-10-02T21:10:36.499Z,93706.81
2022-10-02T21:16:09.631Z,93713.27
2022-10-02T21:21:40.946Z,93712.37
2022-10-02T21:27:07.410Z,93726.51
2022-10-02T21:32:38.835Z,93728.28
2022-10-02T21:38:00.567Z,93724.80
2022-10-02T21:43:32.019Z,93722.13
2022-10-02T21:49:11.311Z,93721.89
2022-10-02T21:54:45.078Z,93714.70
2022-10-02T22:00:07.233Z,93715.45
2022-10-02T22:06:03.506Z,93721.02
2022-10-02T22:11:30.582Z,93713.13
2022-10-02T22:16:57.539Z,93713.30
2022-10-02T22:22:33.673Z,93718.95
2022-10-02T22:27:54.267Z,93713.86
2022-10-02T22:33:28.313Z,93709.31
2022-10-02T22:38:49.871Z,93696.67
2022-10-02T22:44:05.964Z,93725.42
2022-10-02T22:49:47.796Z,93725.37
2022-10-02T22:55:08.956Z,93732.84
2022-10-02T23:00:22.663Z,93741.56
2022-10-02T23:05:33.856Z,93738.95
2022-10-02T23:10:48.325Z,93730.19
2022-10-02T23:16:11.674Z,93738.44
2022-10-02T23:21:47.142Z,93745.06
2022-10-02T23:27:21.431Z,93755.09
2022-10-02T23:32:50.926Z,93730.94
2022-10-02T23:38:20.255Z,93738.83
2022-10-02T23:43:35.035Z,93729.44
2022-10-02T23:48:44.289Z,93738.45
2022-10-02T23:54:19.789Z,93737.02
2022-10-02T23:59:56.173Z,93732.51
